Terminal Aerodrome Forecast
Issued by NWS Wakefield, VA

Home | Current Version | Previous Version | Text Only | Print | Product List | Glossary On
Versions: 1 2 3 4 5 6 7 8 9 10 11 12 13 14 15 16
000
FTUS41 KAKQ 010533
TAFSBY
TAF
KSBY 010533Z 0106/0206 VRB05KT P6SM SKC
     FM011600 25010KT P6SM SCT050
     FM012300 22004KT P6SM BKN060 BKN150=

USA.gov is the U.S. government's official web portal to all federal, state and local government web resources and services.